createdAt,value
2019-03-20T00:01:52.060Z,8.13
2019-03-20T00:04:20.609Z,11.60
2019-03-20T00:06:49.047Z,10.30
2019-03-20T00:09:17.515Z,5.57
2019-03-20T00:11:45.954Z,10.17
2019-03-20T00:14:14.319Z,6.27
2019-03-20T00:16:42.771Z,10.70
2019-03-20T00:19:11.253Z,10.43
2019-03-20T00:21:39.643Z,10.10
2019-03-20T00:24:08.939Z,12.37
2019-03-20T00:26:37.298Z,6.37
2019-03-20T00:29:05.701Z,5.90
2019-03-20T00:31:34.073Z,12.10
2019-03-20T00:34:02.487Z,7.00
2019-03-20T00:36:30.849Z,11.23
2019-03-20T00:38:59.331Z,10.90
2019-03-20T00:41:27.687Z,9.93
2019-03-20T00:43:56.175Z,8.17
2019-03-20T00:46:24.653Z,6.73
2019-03-20T00:48:53.091Z,6.20
2019-03-20T00:51:21.567Z,8.83
2019-03-20T00:53:50.022Z,5.70
2019-03-20T00:56:18.480Z,6.80
2019-03-20T00:58:46.849Z,10.07
2019-03-20T01:01:15.639Z,19.80
2019-03-20T01:03:44.079Z,6.53
2019-03-20T01:06:12.553Z,14.90
2019-03-20T01:08:40.945Z,7.57
2019-03-20T01:11:09.607Z,7.00
2019-03-20T01:13:38.053Z,12.87
2019-03-20T01:16:06.513Z,9.37
2019-03-20T01:18:34.918Z,7.13
2019-03-20T01:21:03.442Z,7.00
2019-03-20T01:23:31.895Z,9.27
2019-03-20T01:26:00.259Z,11.47
2019-03-20T01:28:28.879Z,10.37
2019-03-20T01:30:57.237Z,16.10
2019-03-20T01:33:25.808Z,9.83
2019-03-20T01:35:54.166Z,12.20
2019-03-20T01:38:22.557Z,7.70
2019-03-20T01:40:50.917Z,11.37
2019-03-20T01:43:19.291Z,8.67
2019-03-20T01:45:47.629Z,9.77
2019-03-20T01:48:16.092Z,23.67
2019-03-20T01:50:44.624Z,13.03
2019-03-20T01:53:12.983Z,11.07
2019-03-20T01:55:41.413Z,8.07
2019-03-20T01:58:09.789Z,6.50
2019-03-20T02:00:38.336Z,11.53
2019-03-20T02:03:06.857Z,12.63
2019-03-20T02:05:36.598Z,7.03
2019-03-20T02:08:05.169Z,6.93
2019-03-20T02:10:33.563Z,4.80
2019-03-20T02:13:01.986Z,6.20
2019-03-20T02:15:38.940Z,11.63
2019-03-20T02:18:00.712Z,5.63
2019-03-20T02:20:29.133Z,10.40
2019-03-20T02:22:57.572Z,6.37
2019-03-20T02:25:25.956Z,14.00
2019-03-20T02:27:54.511Z,10.17
2019-03-20T02:30:22.879Z,7.80
2019-03-20T02:32:51.440Z,9.67
2019-03-20T02:35:19.888Z,13.53
2019-03-20T02:37:48.288Z,8.13
2019-03-20T02:40:16.740Z,14.23
2019-03-20T02:42:45.203Z,10.68
2019-03-20T02:45:13.821Z,6.60
2019-03-20T02:47:42.563Z,7.80
2019-03-20T02:50:11.144Z,19.32
2019-03-20T02:52:39.614Z,10.28
2019-03-20T02:55:08.174Z,8.05
2019-03-20T02:57:36.571Z,17.45
2019-03-20T03:00:05.930Z,9.47
2019-03-20T03:02:34.325Z,15.35
2019-03-20T03:05:02.868Z,6.10
2019-03-20T03:07:31.294Z,6.12
2019-03-20T03:09:59.944Z,7.30
2019-03-20T03:12:28.322Z,13.10
2019-03-20T03:14:56.698Z,13.13
2019-03-20T03:17:25.143Z,7.37
2019-03-20T03:19:53.630Z,15.87
2019-03-20T03:22:22.040Z,11.28
2019-03-20T03:24:50.424Z,14.75
2019-03-20T03:27:18.861Z,9.13
2019-03-20T03:29:47.374Z,13.20
2019-03-20T03:32:15.911Z,8.00
2019-03-20T03:34:44.383Z,15.88
2019-03-20T03:37:12.935Z,11.30
2019-03-20T03:39:41.366Z,8.75
2019-03-20T03:42:09.830Z,12.23
2019-03-20T03:44:38.174Z,12.37
2019-03-20T03:47:06.636Z,13.18
2019-03-20T03:49:35.004Z,11.08
2019-03-20T03:52:03.409Z,15.05
2019-03-20T03:54:31.852Z,3.93
2019-03-20T03:57:00.212Z,16.45
2019-03-20T03:59:28.684Z,8.03
2019-03-20T04:01:57.175Z,7.20
2019-03-20T04:04:25.697Z,6.58
2019-03-20T04:06:54.233Z,17.70
2019-03-20T04:09:22.669Z,14.98
2019-03-20T04:11:51.137Z,7.60
2019-03-20T04:14:19.554Z,12.75
2019-03-20T04:16:47.914Z,18.43
2019-03-20T04:19:16.305Z,6.93
2019-03-20T04:21:44.746Z,11.60
2019-03-20T04:24:13.115Z,7.93
2019-03-20T04:26:41.511Z,6.30
2019-03-20T04:29:10.038Z,6.27
2019-03-20T04:31:38.579Z,9.60
2019-03-20T04:34:06.943Z,9.10
2019-03-20T04:36:46.816Z,8.27
2019-03-20T04:39:06.507Z,7.20
2019-03-20T04:41:34.898Z,9.80
2019-03-20T04:44:03.239Z,6.43
2019-03-20T04:46:31.767Z,9.37
2019-03-20T04:49:00.199Z,7.17
2019-03-20T04:51:28.539Z,9.40
2019-03-20T04:53:56.928Z,8.95
2019-03-20T04:56:25.451Z,8.98
2019-03-20T04:58:53.893Z,17.25
2019-03-20T05:01:22.329Z,18.23
2019-03-20T05:03:50.765Z,6.85
2019-03-20T05:06:19.139Z,6.33
2019-03-20T05:08:47.509Z,21.15
2019-03-20T05:11:15.947Z,9.13
2019-03-20T05:13:44.505Z,7.62
2019-03-20T05:16:12.927Z,11.75
2019-03-20T05:18:41.313Z,13.43
2019-03-20T05:21:09.703Z,8.20
2019-03-20T05:23:38.060Z,11.80
2019-03-20T05:26:06.511Z,6.17
2019-03-20T05:28:34.875Z,12.80
2019-03-20T05:31:03.385Z,10.65
2019-03-20T05:33:31.958Z,16.30
2019-03-20T05:36:00.395Z,12.47
2019-03-20T05:38:28.881Z,7.60
2019-03-20T05:40:57.369Z,15.23
2019-03-20T05:43:25.809Z,6.47
2019-03-20T05:45:54.187Z,6.70
2019-03-20T05:48:22.591Z,6.95
2019-03-20T05:50:51.032Z,8.78
2019-03-20T05:53:19.440Z,9.35
2019-03-20T05:55:47.817Z,13.63
2019-03-20T05:58:16.266Z,9.30
2019-03-20T06:00:44.671Z,10.80
2019-03-20T06:03:13.061Z,9.78
2019-03-20T06:05:41.518Z,14.77
2019-03-20T06:08:09.986Z,11.40
2019-03-20T06:10:38.412Z,12.67
2019-03-20T06:13:06.874Z,9.43
2019-03-20T06:15:35.306Z,7.20
2019-03-20T06:18:03.750Z,14.93
2019-03-20T06:20:33.848Z,16.67
2019-03-20T06:23:02.262Z,10.70
2019-03-20T06:25:30.634Z,8.87
2019-03-20T06:27:59.006Z,10.10
2019-03-20T06:30:27.492Z,13.53
2019-03-20T06:32:55.932Z,9.80
2019-03-20T06:35:24.351Z,11.97
2019-03-20T06:37:57.691Z,9.60
2019-03-20T06:40:26.226Z,9.20
2019-03-20T06:42:55.442Z,14.40
2019-03-20T06:45:24.000Z,16.23
2019-03-20T06:47:52.541Z,9.50
2019-03-20T06:50:20.964Z,8.23
2019-03-20T06:52:49.530Z,22.67
2019-03-20T06:55:18.054Z,8.33
2019-03-20T06:57:46.476Z,9.87
2019-03-20T07:00:39.428Z,5.43
2019-03-20T07:03:09.364Z,11.70
2019-03-20T07:05:59.768Z,10.27
2019-03-20T07:08:29.783Z,7.03
2019-03-20T07:11:07.322Z,11.63
2019-03-20T07:13:35.840Z,9.90
2019-03-20T07:16:04.893Z,8.37
2019-03-20T07:18:33.330Z,11.00
2019-03-20T07:21:01.816Z,14.27
2019-03-20T07:23:30.287Z,8.93
2019-03-20T07:25:58.666Z,9.63
2019-03-20T07:28:27.005Z,7.53
2019-03-20T07:30:55.498Z,11.40
2019-03-20T07:33:23.929Z,7.20
2019-03-20T07:35:52.390Z,9.33
2019-03-20T07:38:20.943Z,11.70
2019-03-20T07:40:49.414Z,12.90
2019-03-20T07:43:17.846Z,12.07
2019-03-20T07:45:46.221Z,12.80
2019-03-20T07:48:22.102Z,9.70
2019-03-20T07:50:44.721Z,8.37
2019-03-20T07:53:13.150Z,8.77
2019-03-20T07:55:41.547Z,8.43
2019-03-20T07:58:10.094Z,6.63
2019-03-20T08:00:38.496Z,10.50
2019-03-20T08:03:06.990Z,10.83
2019-03-20T08:05:35.432Z,7.77
2019-03-20T08:08:07.644Z,9.10
2019-03-20T08:10:34.258Z,7.27
2019-03-20T08:13:02.636Z,7.47
2019-03-20T08:15:31.042Z,11.33
2019-03-20T08:17:59.369Z,9.47
2019-03-20T08:20:27.826Z,9.97
2019-03-20T08:22:56.383Z,9.67
2019-03-20T08:25:24.761Z,9.50
2019-03-20T08:27:53.139Z,13.53
2019-03-20T08:30:21.561Z,7.93
2019-03-20T08:32:49.965Z,10.80
2019-03-20T08:35:18.469Z,13.37
2019-03-20T08:37:46.879Z,6.40
2019-03-20T08:40:15.378Z,8.27
2019-03-20T08:42:43.899Z,12.00
2019-03-20T08:45:16.245Z,12.40
2019-03-20T08:47:44.776Z,9.07
2019-03-20T08:50:17.991Z,10.83
2019-03-20T08:52:47.026Z,6.70
2019-03-20T08:55:16.121Z,13.93
2019-03-20T08:57:45.041Z,10.70
2019-03-20T09:00:16.275Z,12.43
2019-03-20T09:02:45.135Z,8.77
2019-03-20T09:05:14.259Z,13.83
2019-03-20T09:07:47.589Z,10.43
2019-03-20T09:10:16.108Z,9.47
2019-03-20T09:12:45.056Z,6.90
2019-03-20T09:15:14.585Z,16.70
2019-03-20T09:17:43.596Z,6.07
2019-03-20T09:20:13.926Z,6.83
2019-03-20T09:22:42.895Z,9.37
2019-03-20T09:25:13.930Z,11.53
2019-03-20T09:27:42.863Z,6.77
2019-03-20T09:30:14.786Z,7.27
2019-03-20T09:32:43.657Z,8.00
2019-03-20T09:35:12.832Z,7.93
2019-03-20T09:37:51.390Z,9.20
2019-03-20T09:40:13.989Z,9.60
2019-03-20T09:42:42.879Z,10.50
2019-03-20T09:45:13.576Z,11.70
2019-03-20T09:47:42.495Z,9.80
2019-03-20T09:50:13.131Z,7.33
2019-03-20T09:52:42.103Z,10.43
2019-03-20T09:55:11.151Z,7.53
2019-03-20T09:57:40.107Z,6.80
2019-03-20T10:00:13.386Z,10.13
2019-03-20T10:02:42.631Z,15.37
2019-03-20T10:05:11.715Z,7.80
2019-03-20T10:07:40.615Z,11.03
2019-03-20T10:10:10.409Z,14.83
2019-03-20T10:12:39.364Z,12.30
2019-03-20T10:15:09.831Z,11.73
2019-03-20T10:17:38.754Z,12.97
2019-03-20T10:20:09.017Z,15.40
2019-03-20T10:22:39.001Z,13.93
2019-03-20T10:25:09.216Z,13.53
2019-03-20T10:27:38.097Z,9.80
2019-03-20T10:30:09.519Z,13.60
2019-03-20T10:32:38.324Z,12.90
2019-03-20T10:35:08.677Z,24.40
2019-03-20T10:37:37.490Z,13.50
2019-03-20T10:40:08.043Z,15.90
2019-03-20T10:42:36.904Z,12.80
2019-03-20T10:45:06.548Z,14.03
2019-03-20T10:47:35.407Z,19.03
2019-03-20T10:50:05.412Z,10.10
2019-03-20T10:52:34.198Z,11.87
2019-03-20T10:55:03.027Z,14.90
2019-03-20T10:57:31.926Z,10.10
2019-03-20T11:00:00.817Z,21.47
2019-03-20T11:02:29.635Z,11.23
2019-03-20T11:04:58.450Z,12.50
2019-03-20T11:07:27.418Z,11.93
2019-03-20T11:09:56.224Z,12.67
2019-03-20T11:12:25.078Z,11.60
2019-03-20T11:14:53.917Z,14.00
2019-03-20T11:17:22.775Z,14.57
2019-03-20T11:19:51.702Z,10.43
2019-03-20T11:22:20.597Z,13.80
2019-03-20T11:24:49.473Z,11.77
2019-03-20T11:27:18.260Z,17.40
2019-03-20T11:29:47.176Z,18.60
2019-03-20T11:32:16.102Z,16.40
2019-03-20T11:34:45.060Z,15.17
2019-03-20T11:37:13.910Z,19.63
2019-03-20T11:39:42.781Z,15.40
2019-03-20T11:42:11.808Z,9.20
2019-03-20T11:44:40.664Z,13.53
2019-03-20T11:47:09.499Z,19.43
2019-03-20T11:49:38.386Z,9.67
2019-03-20T11:52:07.302Z,16.53
2019-03-20T11:54:36.220Z,14.87
2019-03-20T11:57:05.170Z,12.37
2019-03-20T11:59:33.999Z,14.67
2019-03-20T12:02:02.825Z,12.97
2019-03-20T12:04:31.708Z,16.30
2019-03-20T12:07:00.543Z,11.03
2019-03-20T12:09:40.492Z,11.50
2019-03-20T12:11:59.932Z,10.27
2019-03-20T12:14:28.756Z,16.67
2019-03-20T12:16:57.678Z,9.60
2019-03-20T12:19:26.543Z,13.43
2019-03-20T12:21:55.496Z,11.20
2019-03-20T12:24:24.472Z,15.20
2019-03-20T12:26:53.329Z,15.10
2019-03-20T12:29:22.300Z,17.73
2019-03-20T12:31:51.103Z,11.60
2019-03-20T12:34:19.938Z,19.73
2019-03-20T12:36:48.788Z,16.53
2019-03-20T12:39:17.655Z,20.77
2019-03-20T12:41:46.646Z,15.97
2019-03-20T12:44:15.643Z,19.60
2019-03-20T12:46:44.504Z,13.60
2019-03-20T12:49:13.343Z,15.10
2019-03-20T12:51:42.201Z,15.60
2019-03-20T12:54:11.175Z,17.70
2019-03-20T12:56:40.085Z,15.80
2019-03-20T12:59:08.949Z,13.37
2019-03-20T13:01:37.758Z,17.73
2019-03-20T13:04:06.715Z,18.20
2019-03-20T13:06:35.563Z,22.37
2019-03-20T13:09:07.382Z,17.13
2019-03-20T13:11:36.251Z,16.73
2019-03-20T13:14:05.178Z,18.20
2019-03-20T13:16:34.035Z,12.63
2019-03-20T13:19:02.963Z,16.90
2019-03-20T13:21:31.959Z,16.97
2019-03-20T13:24:00.851Z,18.87
2019-03-20T13:26:29.719Z,17.40
2019-03-20T13:28:58.619Z,16.40
2019-03-20T13:31:27.592Z,20.93
2019-03-20T13:33:56.469Z,20.73
2019-03-20T13:36:25.451Z,17.97
2019-03-20T13:38:56.475Z,18.20
2019-03-20T13:41:25.033Z,16.70
2019-03-20T13:43:53.952Z,18.53
2019-03-20T13:46:22.895Z,19.97
2019-03-20T13:48:51.825Z,16.87
2019-03-20T13:51:20.637Z,23.70
2019-03-20T13:53:49.523Z,13.83
2019-03-20T13:56:18.447Z,17.80
2019-03-20T13:58:47.405Z,18.63
2019-03-20T14:01:16.311Z,18.67
2019-03-20T14:03:45.318Z,15.40
2019-03-20T14:06:14.284Z,24.30
2019-03-20T14:08:43.200Z,20.73
2019-03-20T14:11:12.143Z,14.47
2019-03-20T14:13:41.159Z,17.30
2019-03-20T14:16:09.997Z,15.93
2019-03-20T14:18:38.919Z,18.13
2019-03-20T14:21:07.791Z,18.03
2019-03-20T14:23:36.704Z,21.00
2019-03-20T14:26:05.573Z,19.17
2019-03-20T14:28:34.371Z,15.93
2019-03-20T14:31:03.373Z,18.80
2019-03-20T14:33:32.361Z,16.93
2019-03-20T14:36:01.327Z,20.97
2019-03-20T14:38:30.201Z,20.17
2019-03-20T14:40:59.055Z,19.50
2019-03-20T14:43:28.029Z,23.90
2019-03-20T14:45:56.892Z,19.27
2019-03-20T14:48:25.773Z,18.07
2019-03-20T14:50:54.639Z,21.97
2019-03-20T14:53:23.652Z,22.23
2019-03-20T14:55:52.626Z,18.90
2019-03-20T14:58:21.482Z,20.93
2019-03-20T15:00:50.340Z,27.67
2019-03-20T15:03:19.201Z,19.27
2019-03-20T15:05:48.127Z,21.80
2019-03-20T15:08:17.073Z,19.47
2019-03-20T15:10:46.382Z,20.23
2019-03-20T15:13:15.410Z,15.33
2019-03-20T15:15:47.424Z,16.43
2019-03-20T15:18:16.357Z,15.80
2019-03-20T15:20:45.227Z,15.10
2019-03-20T15:23:14.242Z,12.40
2019-03-20T15:25:43.109Z,14.73
2019-03-20T15:28:11.932Z,13.83
2019-03-20T15:30:40.936Z,24.63
2019-03-20T15:33:09.835Z,21.50
2019-03-20T15:35:38.827Z,13.20
2019-03-20T15:38:07.793Z,11.00
2019-03-20T15:40:36.668Z,13.40
2019-03-20T15:43:05.855Z,15.23
2019-03-20T15:45:34.762Z,14.70
2019-03-20T15:48:03.758Z,16.97
2019-03-20T15:50:32.655Z,11.83
2019-03-20T15:53:01.496Z,14.83
2019-03-20T15:55:30.903Z,9.10
2019-03-20T15:57:59.992Z,13.83
2019-03-20T16:00:28.924Z,12.70
2019-03-20T16:03:00.744Z,9.87
2019-03-20T16:05:29.669Z,12.70
2019-03-20T16:07:58.484Z,11.67
2019-03-20T16:10:27.540Z,9.70
2019-03-20T16:12:56.462Z,11.07
2019-03-20T16:15:25.578Z,19.43
2019-03-20T16:17:54.403Z,13.83
2019-03-20T16:20:23.200Z,12.57
2019-03-20T16:22:52.086Z,10.57
2019-03-20T16:25:20.980Z,15.57
2019-03-20T16:27:50.129Z,10.73
2019-03-20T16:30:20.198Z,11.40
2019-03-20T16:32:49.107Z,10.30
2019-03-20T16:35:18.150Z,10.63
2019-03-20T16:37:47.006Z,10.30
2019-03-20T16:40:17.840Z,12.93
2019-03-20T16:42:46.852Z,14.67
2019-03-20T16:45:18.102Z,8.77
2019-03-20T16:47:47.060Z,10.67
2019-03-20T16:50:16.255Z,10.37
2019-03-20T16:52:45.224Z,9.53
2019-03-20T16:55:14.318Z,8.40
2019-03-20T16:57:43.325Z,10.40
2019-03-20T17:00:24.060Z,12.00
2019-03-20T17:02:52.996Z,12.73
2019-03-20T17:05:22.206Z,10.83
2019-03-20T17:07:51.079Z,10.07
2019-03-20T17:10:25.170Z,8.17
2019-03-20T17:12:54.160Z,12.20
2019-03-20T17:15:24.081Z,10.30
2019-03-20T17:17:52.928Z,9.03
2019-03-20T17:20:21.857Z,6.83
2019-03-20T17:22:50.955Z,12.43
2019-03-20T17:25:19.900Z,10.87
2019-03-20T17:27:48.775Z,10.10
2019-03-20T17:30:19.881Z,8.20
2019-03-20T17:32:48.713Z,9.80
2019-03-20T17:35:17.909Z,13.13
2019-03-20T17:37:46.872Z,11.47
2019-03-20T17:40:16.875Z,13.40
2019-03-20T17:42:45.709Z,8.13
2019-03-20T17:45:15.586Z,10.33
2019-03-20T17:47:44.472Z,7.87
2019-03-20T17:50:18.560Z,13.10
2019-03-20T17:52:47.559Z,10.73
2019-03-20T17:55:16.463Z,11.97
2019-03-20T17:57:45.375Z,13.47
2019-03-20T18:00:20.740Z,5.97
2019-03-20T18:02:49.637Z,8.13
2019-03-20T18:05:18.561Z,14.50
2019-03-20T18:07:47.804Z,12.17
2019-03-20T18:10:16.666Z,11.23
2019-03-20T18:12:45.583Z,13.27
2019-03-20T18:15:14.567Z,8.70
2019-03-20T18:17:43.487Z,11.57
2019-03-20T18:20:13.035Z,12.67
2019-03-20T18:22:41.967Z,7.67
2019-03-20T18:25:11.443Z,11.20
2019-03-20T18:27:40.317Z,8.43
2019-03-20T18:30:15.605Z,14.87
2019-03-20T18:32:44.578Z,13.20
2019-03-20T18:35:14.015Z,14.83
2019-03-20T18:37:42.919Z,12.50
2019-03-20T18:40:15.183Z,10.20
2019-03-20T18:42:44.139Z,11.17
2019-03-20T18:45:14.477Z,8.47
2019-03-20T18:47:43.523Z,9.70
2019-03-20T18:50:13.655Z,9.30
2019-03-20T18:52:42.722Z,9.10
2019-03-20T18:55:11.901Z,7.27
2019-03-20T18:57:40.833Z,11.13
2019-03-20T19:00:18.831Z,10.00
2019-03-20T19:02:47.854Z,9.03
2019-03-20T19:05:22.868Z,8.77
2019-03-20T19:07:51.907Z,13.30
2019-03-20T19:10:20.891Z,8.50
2019-03-20T19:12:49.944Z,12.47
2019-03-20T19:15:18.831Z,7.87
2019-03-20T19:17:47.860Z,8.97
2019-03-20T19:20:16.954Z,13.07
2019-03-20T19:22:45.951Z,12.73
2019-03-20T19:25:14.843Z,6.83
2019-03-20T19:27:43.833Z,7.40
2019-03-20T19:30:15.797Z,8.80
2019-03-20T19:32:44.743Z,6.20
2019-03-20T19:35:13.777Z,6.73
2019-03-20T19:37:42.802Z,6.60
2019-03-20T19:40:12.142Z,8.10
2019-03-20T19:42:41.163Z,7.20
2019-03-20T19:45:10.466Z,10.43
2019-03-20T19:47:39.273Z,7.77
2019-03-20T19:50:10.217Z,7.50
2019-03-20T19:52:39.081Z,9.83
2019-03-20T19:55:08.392Z,7.13
2019-03-20T19:57:37.367Z,6.90
2019-03-20T20:00:07.565Z,9.10
2019-03-20T20:02:36.390Z,8.60
2019-03-20T20:05:15.359Z,10.10
2019-03-20T20:07:36.524Z,9.00
2019-03-20T20:10:06.509Z,8.90
2019-03-20T20:12:35.510Z,5.67
2019-03-20T20:15:04.803Z,7.50
2019-03-20T20:17:33.608Z,9.90
2019-03-20T20:20:02.493Z,7.63
2019-03-20T20:22:31.517Z,9.07
2019-03-20T20:25:00.647Z,8.37
2019-03-20T20:27:29.465Z,12.17
2019-03-20T20:29:58.400Z,8.90
2019-03-20T20:32:27.344Z,8.93
2019-03-20T20:34:56.288Z,7.53
2019-03-20T20:37:25.618Z,7.53
2019-03-20T20:39:54.620Z,8.20
2019-03-20T20:42:23.533Z,16.87
2019-03-20T20:44:52.494Z,7.37
2019-03-20T20:47:21.367Z,6.90
2019-03-20T20:49:50.296Z,9.90
2019-03-20T20:52:19.869Z,9.77
2019-03-20T20:54:48.862Z,6.57
2019-03-20T20:57:17.778Z,7.70
2019-03-20T20:59:46.630Z,6.60
2019-03-20T21:02:15.459Z,7.07
2019-03-20T21:04:44.422Z,12.13
2019-03-20T21:07:13.314Z,4.60
2019-03-20T21:09:42.270Z,9.20
2019-03-20T21:12:11.293Z,13.00
2019-03-20T21:14:40.398Z,10.27
2019-03-20T21:17:13.984Z,13.60
2019-03-20T21:19:43.394Z,8.73
2019-03-20T21:22:51.458Z,10.40
2019-03-20T21:25:22.172Z,8.50
2019-03-20T21:28:33.079Z,10.87
2019-03-20T21:31:38.367Z,7.57
2019-03-20T21:35:00.550Z,9.23
2019-03-20T21:37:49.604Z,9.80
2019-03-20T21:40:19.940Z,11.80
2019-03-20T21:43:24.480Z,10.57
2019-03-20T21:46:25.006Z,7.80
2019-03-20T21:48:54.469Z,10.30
2019-03-20T21:51:24.230Z,9.63
2019-03-20T21:54:38.328Z,10.90
2019-03-20T21:57:31.446Z,10.10
2019-03-20T22:00:23.640Z,13.37
2019-03-20T22:02:53.224Z,10.70
2019-03-20T22:05:35.816Z,12.80
2019-03-20T22:08:05.386Z,19.63
2019-03-20T22:11:24.637Z,13.20
2019-03-20T22:13:58.704Z,12.83
2019-03-20T22:17:10.400Z,12.73
2019-03-20T22:20:14.881Z,15.23
2019-03-20T22:23:25.580Z,18.47
2019-03-20T22:26:50.619Z,15.10
2019-03-20T22:29:24.037Z,15.67
2019-03-20T22:32:20.323Z,22.80
2019-03-20T22:39:27.780Z,23.27
2019-03-20T22:42:26.167Z,24.80
2019-03-20T22:45:29.623Z,21.93
2019-03-20T22:48:40.959Z,21.10
2019-03-20T22:51:49.738Z,24.53
2019-03-20T22:55:06.106Z,26.00
2019-03-20T22:58:08.396Z,30.93
2019-03-20T23:00:38.065Z,27.40
2019-03-20T23:03:18.719Z,27.93
2019-03-20T23:05:48.223Z,19.93
2019-03-20T23:08:17.668Z,19.93
2019-03-20T23:10:49.037Z,24.50
2019-03-20T23:13:19.498Z,24.57
2019-03-20T23:15:49.144Z,30.03
2019-03-20T23:18:23.421Z,23.37
2019-03-20T23:20:52.867Z,28.90
2019-03-20T23:23:22.186Z,24.03
2019-03-20T23:25:51.563Z,26.80
2019-03-20T23:28:21.287Z,23.40
2019-03-20T23:30:50.703Z,26.90
2019-03-20T23:33:20.190Z,25.53
2019-03-20T23:35:49.517Z,34.60
2019-03-20T23:38:18.971Z,26.37
2019-03-20T23:40:48.377Z,27.40
2019-03-20T23:43:17.916Z,31.33
2019-03-20T23:45:47.259Z,30.20
2019-03-20T23:48:43.343Z,35.57
2019-03-20T23:51:14.858Z,30.17
2019-03-20T23:53:49.887Z,30.53
2019-03-20T23:56:19.246Z,27.97
2019-03-20T23:58:48.721Z,31.43
